RELACIONES PÚBLICAS

23/03/2017DÍA METEOROLÓGICO MUNDIAL 2017   Cada 23 de marzo la Organización Meteorológica Mundial (OMM) celebra la entrada en vigencia del Convenio mediante el cual fue creado, en 1950. Este día es conocido como el Día Meteorológico Mundial, y en él se celebra y destaca la importancia que los Servicios Meteorológicos e Hidrológicos Nacionales tienen en cada país, puesto que contribuyen al mantenimiento de la seguridad y el bienestar general. A su vez, a cada Día Meteorológico Mundial se le asigna un tema específico. Este año el tema elegido es " Entendiendo las nubes"; con el fin de resaltar la enorme importancia que revisten las nubes para el tiempo, el clima y el agua.https://www.youtube.com/watch?v=BazVcoxsscw&feature=youtu.behttps://public.wmo.int/es/D%C3%ADa-Meteorol%C3%B3gico-Mundial-2017

Productos aeronáuticos

  • SIGMET
  • METAR / SPECI
  • TAF
  • AIREP
  • Aviso de aeródromo
  • Pronárea
  • Carta superficie

Mensajes METAR de la última hora

SUAA 242100Z 12008KT 9999 FEW026TCU 24/19 Q1013
SUCA 242100Z 13005KT 9999 FEW026 FEW033CB 24/20 Q1011
SUDU 242100Z 00000KT 9999 SCT033 28/18 Q1011
SULS 242100Z 10012KT 9999 FEW030 24/18 Q1014
SUMU 242100Z 12008KT CAVOK 23/19 Q1014 NOSIG

Mensajes METAR de la última hora - Internacionales


Argentina
SAAR 242100Z 05005KT 9999 FEW035 28/18 Q1012
SABE 242100Z 04005KT 010V070 CAVOK 26/20 Q1013
SACO 242100Z 05015KT 9999 FEW020 27/16 Q1011
SAEZ 242100Z 07008KT CAVOK 26/20 Q1012
SAME 242100Z 18004KT 9999 FEW040CB SCT045 30/10 Q1009
Bolivia
SLCP 242100Z 00000KT 9999 FEW017 BKN200 29/23 Q1012
SLLP 242100Z 28008KT 230V310 9999 FEW017 FEW020CB SCT200 15/
Brasil
SBGR 242125Z 16004KT 4000 BR BKN040 SCT070 22/19 Q1016
SBFL 242110Z 36008KT 4000 TSRA SCT030 FEW040CB BKN100 24/21 Q10 13
SBBR 242100Z 31006KT 9999 FEW040 FEW045TCU BKN100 25/18 Q1016
SBFI 242100Z 13009KT 9999 FEW040 SCT080 25/21 Q1012
SBFL 242100Z 03007KT 7000 -TSRA SCT030 FEW040CB BKN100 25/20 Q1 012
SBGR 242100Z 14005KT 5000 HZ BKN045 SCT070 24/19 Q1016
SBPA 242100Z 16009KT CAVOK 26/19 Q1013
SBRJ 242100Z 18011KT CAVOK 26/20 Q1012
SBSP 242100Z 17009KT 9999 FEW022 SCT067 22/18 Q1016
Colombia
SKBO 242100Z 29004KT 9999 SCT015 BKN080 14/11 A3029
Chile
SCCI 242100Z VRB02KT 9999 -SHRA FEW040 OVC070 11/08 Q1009 NOSIG
SCEL 242100Z 16006KT 110V190 9999 OVC030 18/11 Q1016 NOSIG
Ecuador
SEQM 242100Z 07006KT 9999 -RA BKN020 BKN100 14/13 Q1025 TEMPO 8000 RA RMK A3027
EEUU
KMIA 242153Z 06015G21KT 10SM SCT030 BKN055 BKN070 BKN200 24/17 A3019 RMK AO2 PK WND 07027/2127 RAE2059 SLP224 P0000 T02390167 $
KDCA 242152Z 20017KT 10SM FEW150 OVC250 17/03 A3020 RMK AO2 PK WND 20026/2118 SLP227 T01670028
KIAD 242152Z 18011G19KT 10SM FEW100 BKN150 BKN250 16/03 A3018 RMK AO2 SLP220 T01610028
KJFK 242151Z 19011KT 10SM BKN070 BKN085 BKN250 08/03 A3015 RMK AO2 SLP208 T00830033
KLGA 242151Z 22008KT 10SM FEW055 BKN070 BKN250 14/00 A3012 RMK AO2 SLP200 T01440000
España
LEBL 242142Z 32010KT 3000 +TSRA SCT020CB BKN025 07/07 Q1011 NOSIG
LEBL 242130Z 32016KT 6000 RA VCTS SCT020CB BKN030 07/07 Q1010 RETS TEMPO TSRA
LEMD 242130Z VRB02KT 9999 FEW011 03/02 Q1014 NOSIG
LEBL 242100Z 30013KT 4000 TSRA SCT020CB BKN030 08/07 Q1010 NOSIG
LEMD 242100Z 29001KT CAVOK 04/02 Q1014 NOSIG
Francia
LFPO 242130Z 03009KT CAVOK 09/06 Q1025 NOSIG
LFPO 242100Z 03008KT CAVOK 09/06 Q1025 NOSIG
Inglaterra
EGLL 242150Z AUTO 05007KT 9999 NCD 07/03 Q1032
EGLL 242120Z AUTO 05006KT 020V080 9999 NCD 08/03 Q1032
Panamá
MPTO 242100Z 36011KT 9999 SCT020 33/18 Q1011 NOSIG
Venezuela
SVMI 242100Z 05002KT 9999 OVC016 27/20 Q1011

* Datos extraidos del Text DataServer de la NOAA (NOAA TEXT DATA SERVER)

Instituto Uruguayo de Meteorología

Dr. Javier Barrios Amorín 1488 - CP 11200
1895 int 108

Montevideo - Uruguay